Time;durP1;ratioP1;P1;durP2;ratioP2;P2;SDS_P1;SDS_P2;PMS_P1;PMS_P2;Temp;Humidity;BMP_temperature;BMP_pressure;BME280_temperature;BME280_humidity;BME280_pressure;Samples;Min_cycle;Max_cycle;Signal;HPM_P1;HPM_P2
2023/12/10 00:00:47;;;;;;;28.90;4.30;;;9.70;99.90;;;;;;4879239;29;20120;-80
2023/12/10 00:03:13;;;;;;;36.80;5.63;;;9.70;99.90;;;;;;4879107;29;20458;-82
2023/12/10 00:05:38;;;;;;;34.35;4.60;;;9.70;99.90;;;;;;4862491;29;20056;-80
2023/12/10 00:08:04;;;;;;;30.23;4.63;;;9.80;99.90;;;;;;4862823;29;20466;-80
2023/12/10 00:10:30;;;;;;;36.08;4.43;;;9.80;99.90;;;;;;4878807;29;20470;-80
2023/12/10 00:12:55;;;;;;;31.45;4.10;;;9.80;99.90;;;;;;4862507;29;20486;-79
2023/12/10 00:15:21;;;;;;;33.78;4.65;;;9.80;99.90;;;;;;4846677;29;20037;-80
2023/12/10 00:17:47;;;;;;;30.77;6.00;;;9.80;99.90;;;;;;4882288;29;20180;-80
2023/12/10 00:20:12;;;;;;;29.90;4.38;;;9.80;99.90;;;;;;4882919;29;20096;-81
2023/12/10 00:22:38;;;;;;;33.88;5.22;;;9.90;99.90;;;;;;4865770;29;20061;-80
2023/12/10 00:25:04;;;;;;;29.02;4.43;;;9.80;99.90;;;;;;4882383;29;20061;-80
2023/12/10 00:27:30;;;;;;;29.80;3.75;;;9.80;99.90;;;;;;4882441;29;20037;-80
2023/12/10 00:29:56;;;;;;;33.75;4.45;;;9.90;99.90;;;;;;4865914;29;20037;-79
2023/12/10 00:32:21;;;;;;;32.38;4.40;;;9.90;99.90;;;;;;4850576;29;20101;-80
2023/12/10 00:34:47;;;;;;;32.05;4.53;;;9.90;99.90;;;;;;4866494;29;20459;-79
2023/12/10 00:37:13;;;;;;;36.17;5.57;;;9.90;99.90;;;;;;4866126;29;20492;-81
2023/12/10 00:39:39;;;;;;;34.83;5.50;;;9.90;99.90;;;;;;4882008;29;20025;-81
2023/12/10 00:42:04;;;;;;;35.00;5.93;;;9.80;99.90;;;;;;4850221;29;20459;-80
2023/12/10 00:44:30;;;;;;;36.60;4.65;;;9.80;99.90;;;;;;4865530;29;20148;-81
2023/12/10 00:46:56;;;;;;;37.47;5.05;;;9.80;99.90;;;;;;4882660;29;20488;-80
2023/12/10 00:49:22;;;;;;;37.47;4.60;;;9.70;99.90;;;;;;4865818;29;20036;-79
2023/12/10 00:51:47;;;;;;;33.08;5.03;;;9.60;99.90;;;;;;4882142;29;20033;-79
2023/12/10 00:54:13;;;;;;;36.65;5.53;;;9.60;99.90;;;;;;4865832;29;20475;-80
2023/12/10 00:56:39;;;;;;;39.70;5.65;;;9.60;99.90;;;;;;4849969;29;20247;-81
2023/12/10 00:59:05;;;;;;;36.38;4.72;;;9.50;99.90;;;;;;4865254;29;20064;-78
2023/12/10 01:01:30;;;;;;;41.25;5.38;;;9.50;99.90;;;;;;4865278;29;20029;-77
2023/12/10 01:03:56;;;;;;;29.77;4.22;;;9.40;99.90;;;;;;4849866;29;20065;-77
2023/12/10 01:06:22;;;;;;;39.63;5.45;;;9.40;99.90;;;;;;4882042;29;20036;-80
2023/12/10 01:08:47;;;;;;;35.40;4.93;;;9.40;99.90;;;;;;4881947;29;20033;-78
2023/12/10 01:11:14;;;;;;;34.17;4.65;;;9.30;99.90;;;;;;4881898;29;20473;-79
2023/12/10 01:13:40;;;;;;;43.83;5.70;;;9.30;99.90;;;;;;4865783;29;20065;-80
2023/12/10 01:16:07;;;;;;;36.95;5.05;;;9.30;99.90;;;;;;4881944;29;20045;-79
2023/12/10 01:18:37;;;;;;;44.78;6.25;;;9.30;99.90;;;;;;4881832;29;20096;-80
2023/12/10 01:21:04;;;;;;;34.83;5.05;;;9.20;99.90;;;;;;4865795;29;20053;-79
2023/12/10 01:23:29;;;;;;;39.97;4.30;;;9.30;99.90;;;;;;4881672;29;20040;-79
2023/12/10 01:25:55;;;;;;;43.78;5.30;;;9.30;99.90;;;;;;4864601;29;20402;-79
2023/12/10 01:28:21;;;;;;;42.35;5.13;;;9.20;99.90;;;;;;4864543;29;20041;-80
2023/12/10 01:30:46;;;;;;;32.45;5.05;;;9.20;99.90;;;;;;4881577;29;20039;-79
2023/12/10 01:33:12;;;;;;;30.65;3.70;;;9.20;99.90;;;;;;4865203;29;20032;-79
2023/12/10 01:35:38;;;;;;;29.45;3.85;;;9.20;99.90;;;;;;4865333;29;20049;-79
2023/12/10 01:38:03;;;;;;;35.58;4.80;;;9.20;99.90;;;;;;4881425;29;20397;-80
2023/12/10 01:40:29;;;;;;;33.83;4.78;;;9.20;99.90;;;;;;4881090;29;20071;-81
2023/12/10 01:42:55;;;;;;;35.97;4.30;;;9.20;99.90;;;;;;4881608;29;20097;-81
2023/12/10 01:45:20;;;;;;;34.08;3.97;;;9.20;99.90;;;;;;4864617;29;20084;-81
2023/12/10 01:47:49;;;;;;;30.50;3.35;;;9.20;99.90;;;;;;4865086;29;20092;-81
2023/12/10 01:50:18;;;;;;;32.38;3.95;;;9.20;99.90;;;;;;4864624;29;20033;-81
2023/12/10 01:52:45;;;;;;;30.67;4.20;;;9.20;99.90;;;;;;4881118;29;20029;-82
2023/12/10 01:55:12;;;;;;;37.65;4.25;;;9.20;99.90;;;;;;4864578;29;20029;-81
2023/12/10 01:57:41;;;;;;;34.97;3.72;;;9.10;99.90;;;;;;4864219;29;20040;-79
2023/12/10 02:00:07;;;;;;;29.63;4.05;;;9.20;99.90;;;;;;4864179;29;20116;-79
2023/12/10 02:02:35;;;;;;;29.17;3.40;;;9.10;99.90;;;;;;4848551;29;20033;-80
2023/12/10 02:05:06;;;;;;;28.98;4.78;;;9.20;99.90;;;;;;4864547;29;20025;-79
2023/12/10 02:07:32;;;;;;;28.42;3.67;;;9.10;99.90;;;;;;4880794;29;20525;-80
2023/12/10 02:09:57;;;;;;;28.25;4.13;;;9.10;99.90;;;;;;4863969;29;20154;-79
2023/12/10 02:12:23;;;;;;;30.52;3.70;;;9.10;99.90;;;;;;4864514;29;20124;-80
2023/12/10 02:14:49;;;;;;;25.42;5.10;;;9.10;99.90;;;;;;4880491;29;20051;-80
2023/12/10 02:17:15;;;;;;;30.08;3.78;;;9.10;99.90;;;;;;4863670;29;20052;-79
2023/12/10 02:19:41;;;;;;;31.83;3.78;;;9.00;99.90;;;;;;4863984;29;20032;-80
2023/12/10 02:22:11;;;;;;;31.35;4.00;;;9.00;99.90;;;;;;4880225;29;20402;-79
2023/12/10 02:25:01;;;;;;;27.70;3.83;;;9.00;99.90;;;;;;4880396;29;20038;-78
2023/12/10 02:27:27;;;;;;;23.15;3.15;;;9.00;99.90;;;;;;4880773;29;20484;-79
2023/12/10 02:29:54;;;;;;;29.85;3.90;;;9.00;99.90;;;;;;4863871;29;20033;-79
2023/12/10 02:32:20;;;;;;;24.85;3.55;;;9.00;99.90;;;;;;4880558;29;20071;-79
2023/12/10 02:34:45;;;;;;;33.45;4.30;;;9.00;99.90;;;;;;4880323;29;20033;-79
2023/12/10 02:37:11;;;;;;;25.67;3.28;;;9.00;99.90;;;;;;4863052;29;20057;-79
2023/12/10 02:39:37;;;;;;;28.52;4.22;;;9.00;99.90;;;;;;4862986;29;20037;-79
2023/12/10 02:42:03;;;;;;;29.38;4.43;;;9.00;99.90;;;;;;4863540;29;20033;-78
2023/12/10 02:44:29;;;;;;;26.17;3.83;;;9.00;99.90;;;;;;4863122;29;20033;-78
2023/12/10 02:46:55;;;;;;;34.97;4.13;;;9.00;99.90;;;;;;4863231;29;20037;-78
2023/12/10 02:49:20;;;;;;;29.77;4.15;;;9.00;99.90;;;;;;4847881;29;20033;-77
2023/12/10 02:51:46;;;;;;;28.75;3.67;;;8.90;99.90;;;;;;4880004;29;20065;-76
2023/12/10 02:54:12;;;;;;;37.30;4.03;;;8.90;99.90;;;;;;4863209;29;20033;-77
2023/12/10 02:56:37;;;;;;;29.13;4.32;;;8.90;99.90;;;;;;4880166;29;20035;-78
2023/12/10 02:59:03;;;;;;;35.33;4.30;;;8.90;99.90;;;;;;4879605;29;20506;-78
2023/12/10 03:01:29;;;;;;;32.35;3.72;;;8.90;99.90;;;;;;4880165;29;20487;-77
2023/12/10 03:03:55;;;;;;;30.88;4.32;;;8.90;99.90;;;;;;4848339;29;20043;-78
2023/12/10 03:06:21;;;;;;;35.38;4.38;;;8.90;99.90;;;;;;4863490;29;20390;-77
2023/12/10 03:08:46;;;;;;;27.02;3.40;;;8.90;99.90;;;;;;4879472;29;20089;-77
2023/12/10 03:11:12;;;;;;;35.28;3.70;;;8.90;99.90;;;;;;4879358;29;20051;-78
2023/12/10 03:13:38;;;;;;;30.02;3.60;;;8.90;99.90;;;;;;4879959;29;20033;-78
2023/12/10 03:16:04;;;;;;;35.92;3.83;;;8.90;99.90;;;;;;4863009;29;20037;-77
2023/12/10 03:18:29;;;;;;;27.58;3.85;;;8.90;99.90;;;;;;4879601;29;20080;-78
2023/12/10 03:20:55;;;;;;;34.22;4.75;;;8.80;99.90;;;;;;4862849;29;20032;-77
2023/12/10 03:23:21;;;;;;;31.08;4.03;;;8.80;99.90;;;;;;4863481;29;20495;-78
2023/12/10 03:25:46;;;;;;;29.73;3.35;;;8.80;99.90;;;;;;4879352;29;20036;-77
2023/12/10 03:28:12;;;;;;;34.92;3.85;;;8.80;99.90;;;;;;4879533;29;20033;-77
2023/12/10 03:30:38;;;;;;;32.75;3.83;;;8.90;99.90;;;;;;4863192;29;20455;-77
2023/12/10 03:33:04;;;;;;;27.00;3.70;;;8.80;99.90;;;;;;4879251;29;20489;-77
2023/12/10 03:35:29;;;;;;;26.77;3.60;;;8.80;99.90;;;;;;4862471;29;20132;-78
2023/12/10 03:37:55;;;;;;;25.80;3.78;;;8.80;99.90;;;;;;4879188;29;20045;-77
2023/12/10 03:40:21;;;;;;;35.20;4.30;;;8.80;99.90;;;;;;4879572;29;20044;-77
2023/12/10 03:42:46;;;;;;;32.92;3.47;;;8.80;99.90;;;;;;4879694;29;20446;-77
2023/12/10 03:45:12;;;;;;;35.30;4.10;;;8.80;99.90;;;;;;4862662;29;20030;-77
2023/12/10 03:47:39;;;;;;;31.38;4.53;;;8.80;99.90;;;;;;4847333;29;20049;-77
2023/12/10 03:50:05;;;;;;;32.67;4.30;;;8.80;99.90;;;;;;4880214;29;20025;-76
2023/12/10 03:52:31;;;;;;;35.75;5.60;;;8.80;99.90;;;;;;4866466;29;20037;-77
2023/12/10 03:54:56;;;;;;;39.85;4.75;;;8.80;99.90;;;;;;4883443;29;20130;-77
2023/12/10 03:57:22;;;;;;;36.03;4.32;;;8.80;99.90;;;;;;4866272;29;20044;-78
2023/12/10 03:59:47;;;;;;;34.75;4.95;;;8.90;99.90;;;;;;4882844;29;20037;-78
2023/12/10 04:02:13;;;;;;;34.33;3.83;;;8.90;99.90;;;;;;4882991;29;20434;-78
2023/12/10 04:04:39;;;;;;;32.72;4.78;;;8.90;99.90;;;;;;4882760;29;20670;-78
2023/12/10 04:07:05;;;;;;;31.48;4.30;;;8.90;99.90;;;;;;4866591;29;20367;-78
2023/12/10 04:09:30;;;;;;;39.42;4.20;;;8.90;99.90;;;;;;4882810;29;20393;-77
2023/12/10 04:11:58;;;;;;;27.30;3.78;;;8.90;99.90;;;;;;4866791;29;20037;-78
2023/12/10 04:14:24;;;;;;;33.17;4.75;;;8.90;99.90;;;;;;4882511;29;20033;-77
2023/12/10 04:16:50;;;;;;;31.27;4.60;;;8.90;99.90;;;;;;4882683;29;20037;-77
2023/12/10 04:19:16;;;;;;;28.98;4.53;;;8.90;99.90;;;;;;4882822;29;20029;-78
2023/12/10 04:21:42;;;;;;;32.92;5.55;;;8.90;99.90;;;;;;4865870;29;20037;-78
2023/12/10 04:24:07;;;;;;;35.05;5.40;;;8.90;99.90;;;;;;4866684;29;20037;-78
2023/12/10 04:26:33;;;;;;;35.45;4.50;;;8.90;99.90;;;;;;4882382;29;20051;-77
2023/12/10 04:28:59;;;;;;;30.90;4.15;;;8.90;99.90;;;;;;4865946;29;20214;-78
2023/12/10 04:31:25;;;;;;;33.13;4.15;;;8.90;99.90;;;;;;4882726;29;20116;-78
2023/12/10 04:33:50;;;;;;;34.10;4.55;;;8.90;99.90;;;;;;4882240;29;20037;-78
2023/12/10 04:36:16;;;;;;;30.42;4.15;;;9.00;99.90;;;;;;4865840;29;20045;-78
2023/12/10 04:38:43;;;;;;;33.50;4.30;;;9.00;99.90;;;;;;4882052;29;20041;-79
2023/12/10 04:41:09;;;;;;;25.92;3.83;;;8.90;99.90;;;;;;4882538;29;20029;-78
2023/12/10 04:43:34;;;;;;;30.10;3.55;;;9.00;99.90;;;;;;4866007;29;20128;-78
2023/12/10 04:46:00;;;;;;;37.00;3.85;;;9.00;99.90;;;;;;4882271;29;20044;-79
2023/12/10 04:48:26;;;;;;;31.48;4.38;;;9.00;99.90;;;;;;4882487;29;20506;-77
2023/12/10 04:50:51;;;;;;;32.13;3.85;;;9.00;99.90;;;;;;4865778;29;20081;-79
2023/12/10 04:53:17;;;;;;;29.10;3.55;;;9.00;99.90;;;;;;4882158;29;20035;-80
2023/12/10 04:55:43;;;;;;;34.40;4.47;;;9.00;99.90;;;;;;4865566;29;20044;-79
2023/12/10 04:58:09;;;;;;;40.03;5.28;;;9.00;99.90;;;;;;4882181;29;20096;-80
2023/12/10 05:00:35;;;;;;;27.90;3.67;;;9.00;99.90;;;;;;4865260;29;20033;-80
2023/12/10 05:03:01;;;;;;;37.38;4.15;;;9.00;99.90;;;;;;4881017;29;20025;-80
2023/12/10 05:05:26;;;;;;;32.95;4.15;;;9.00;99.90;;;;;;4881811;29;20037;-80
2023/12/10 05:07:52;;;;;;;30.63;4.97;;;9.00;99.90;;;;;;4850256;29;20482;-80
2023/12/10 05:10:18;;;;;;;31.42;4.68;;;9.10;99.90;;;;;;4864966;29;20044;-79
2023/12/10 05:12:43;;;;;;;30.20;4.05;;;9.00;99.90;;;;;;4864947;29;20120;-79
2023/12/10 05:15:09;;;;;;;32.35;4.82;;;9.10;99.90;;;;;;4881515;29;20473;-79
2023/12/10 05:17:35;;;;;;;30.70;5.07;;;9.10;99.90;;;;;;4864832;29;20044;-79
2023/12/10 05:20:02;;;;;;;32.08;4.82;;;9.10;99.90;;;;;;4881689;29;20037;-80
2023/12/10 05:22:27;;;;;;;32.97;4.00;;;9.10;99.90;;;;;;4881417;29;20496;-79
2023/12/10 05:24:53;;;;;;;40.20;5.53;;;9.10;99.90;;;;;;4881357;29;20037;-79
2023/12/10 05:27:19;;;;;;;29.80;3.78;;;9.10;99.90;;;;;;4882066;29;20502;-79
2023/12/10 05:29:45;;;;;;;28.58;3.92;;;9.20;99.90;;;;;;4881323;29;20371;-79
2023/12/10 05:32:10;;;;;;;33.15;4.65;;;9.10;99.90;;;;;;4881292;29;20029;-79
2023/12/10 05:34:36;;;;;;;29.15;4.43;;;9.20;99.90;;;;;;4865050;29;20097;-79
2023/12/10 05:37:02;;;;;;;30.55;3.85;;;9.20;99.90;;;;;;4865285;29;20402;-79
2023/12/10 05:39:27;;;;;;;26.60;3.88;;;9.20;99.90;;;;;;4865389;29;20088;-79
2023/12/10 05:41:53;;;;;;;24.65;3.42;;;9.20;99.90;;;;;;4881227;29;20033;-79
2023/12/10 05:44:19;;;;;;;32.20;3.88;;;9.20;99.90;;;;;;4881424;29;20499;-78
2023/12/10 05:46:45;;;;;;;34.45;3.75;;;9.20;99.90;;;;;;4880961;29;20467;-80
2023/12/10 05:49:10;;;;;;;23.45;3.67;;;9.20;99.90;;;;;;4880991;29;20169;-78
2023/12/10 05:51:36;;;;;;;26.38;3.88;;;9.30;99.90;;;;;;4881463;29;20517;-79
2023/12/10 05:54:02;;;;;;;28.98;3.72;;;9.20;99.90;;;;;;4881311;29;20037;-79
2023/12/10 05:56:28;;;;;;;34.60;3.92;;;9.30;99.90;;;;;;4881252;29;20070;-80
2023/12/10 05:58:54;;;;;;;28.75;3.92;;;9.20;99.90;;;;;;4864921;29;20468;-79
2023/12/10 06:01:19;;;;;;;29.70;3.80;;;9.30;99.90;;;;;;4881488;29;20462;-80
2023/12/10 06:03:45;;;;;;;29.75;3.63;;;9.30;99.90;;;;;;4881247;29;20033;-80
2023/12/10 06:06:11;;;;;;;26.25;4.00;;;9.20;99.90;;;;;;4865959;29;20040;-80
2023/12/10 06:08:36;;;;;;;25.75;4.03;;;9.30;99.90;;;;;;4850640;29;20477;-79
2023/12/10 06:11:02;;;;;;;31.77;4.07;;;9.30;99.90;;;;;;4865467;29;20458;-80
2023/12/10 06:13:28;;;;;;;26.88;3.75;;;9.30;99.90;;;;;;4881195;29;20490;-79
2023/12/10 06:15:56;;;;;;;30.23;3.95;;;9.30;99.90;;;;;;4881538;29;20052;-79
2023/12/10 06:18:22;;;;;;;26.42;3.47;;;9.30;99.90;;;;;;4881438;29;20029;-79
2023/12/10 06:20:48;;;;;;;24.23;3.70;;;9.30;99.90;;;;;;4880885;29;20040;-79
2023/12/10 06:23:14;;;;;;;38.63;5.60;;;9.30;99.90;;;;;;4863861;29;20045;-79
2023/12/10 06:25:40;;;;;;;30.88;4.90;;;9.30;99.90;;;;;;4863751;29;20044;-79
2023/12/10 06:28:06;;;;;;;29.95;4.28;;;9.40;99.90;;;;;;4880597;29;20040;-79
2023/12/10 06:30:31;;;;;;;28.05;3.63;;;9.30;99.90;;;;;;4880556;29;20033;-80
2023/12/10 06:32:57;;;;;;;25.45;3.50;;;9.30;99.90;;;;;;4880875;29;20041;-80
2023/12/10 06:35:23;;;;;;;27.85;4.15;;;9.30;99.90;;;;;;4848104;29;20121;-79
2023/12/10 06:37:49;;;;;;;25.70;3.22;;;9.30;99.90;;;;;;4880173;29;20085;-80
2023/12/10 06:40:15;;;;;;;28.52;4.45;;;9.30;99.90;;;;;;4880780;29;20112;-79
2023/12/10 06:42:41;;;;;;;23.55;2.92;;;9.20;99.90;;;;;;4880450;29;20104;-79
2023/12/10 06:45:07;;;;;;;31.85;4.45;;;9.20;99.90;;;;;;4863700;29;20032;-80
2023/12/10 06:47:33;;;;;;;29.42;4.72;;;9.20;99.90;;;;;;4863979;29;20037;-80
2023/12/10 06:49:59;;;;;;;29.65;4.47;;;9.10;99.90;;;;;;4880015;29;20446;-80
2023/12/10 06:52:25;;;;;;;25.38;3.60;;;9.10;99.90;;;;;;4879899;29;20113;-80
2023/12/10 06:54:51;;;;;;;25.98;3.25;;;9.10;99.90;;;;;;4880056;29;20089;-80
2023/12/10 06:57:17;;;;;;;31.90;3.83;;;9.10;99.90;;;;;;4879869;29;20033;-80
2023/12/10 06:59:43;;;;;;;30.58;4.28;;;9.10;99.90;;;;;;4863671;29;20105;-79
2023/12/10 07:02:09;;;;;;;25.00;4.05;;;9.20;99.90;;;;;;4879939;29;20112;-79
2023/12/10 07:04:35;;;;;;;25.65;4.32;;;9.10;99.90;;;;;;4879570;29;20470;-80
2023/12/10 07:07:01;;;;;;;26.60;3.17;;;9.20;99.90;;;;;;4879878;29;20115;-79
2023/12/10 07:09:26;;;;;;;23.08;4.30;;;9.20;99.90;;;;;;4879750;29;20411;-79
2023/12/10 07:11:52;;;;;;;27.33;3.95;;;9.20;99.90;;;;;;4863046;29;20044;-79
2023/12/10 07:14:18;;;;;;;30.60;4.38;;;9.20;99.90;;;;;;4879717;29;20085;-80
2023/12/10 07:16:43;;;;;;;23.25;3.03;;;9.30;99.90;;;;;;4863169;29;20037;-79
2023/12/10 07:19:09;;;;;;;31.33;4.43;;;9.30;99.90;;;;;;4863396;29;20177;-79
2023/12/10 07:21:35;;;;;;;30.73;3.80;;;9.40;99.90;;;;;;4879786;29;20065;-79
2023/12/10 07:24:00;;;;;;;30.75;4.05;;;9.30;99.90;;;;;;4863080;29;20050;-79
2023/12/10 07:26:26;;;;;;;26.45;3.38;;;9.30;99.90;;;;;;4862837;29;20041;-79
2023/12/10 07:28:52;;;;;;;23.92;3.00;;;9.40;99.90;;;;;;4880105;29;20453;-78
2023/12/10 07:31:18;;;;;;;33.60;4.88;;;9.40;99.90;;;;;;4879647;29;20165;-78
2023/12/10 07:33:44;;;;;;;23.88;3.50;;;9.40;99.90;;;;;;4879494;29;20052;-78
2023/12/10 07:36:10;;;;;;;28.50;3.50;;;9.40;99.90;;;;;;4879727;29;20049;-78
2023/12/10 07:38:36;;;;;;;29.48;3.50;;;9.40;99.90;;;;;;4879459;29;20064;-76
2023/12/10 07:41:02;;;;;;;27.67;3.53;;;9.50;99.90;;;;;;4863031;29;20097;-80
2023/12/10 07:43:28;;;;;;;29.88;3.42;;;9.50;99.90;;;;;;4879445;29;20041;-81
2023/12/10 07:45:53;;;;;;;23.15;4.05;;;9.50;99.90;;;;;;4879190;29;20037;-79
2023/12/10 07:48:20;;;;;;;27.58;3.60;;;9.50;99.90;;;;;;4847344;29;20371;-82
2023/12/10 07:50:46;;;;;;;26.20;3.42;;;9.50;99.90;;;;;;4832198;29;20041;-83
2023/12/10 07:53:11;;;;;;;36.40;3.83;;;9.50;99.90;;;;;;4879357;29;20053;-82
2023/12/10 07:55:37;;;;;;;30.80;3.83;;;9.50;99.90;;;;;;4878999;29;20108;-82
2023/12/10 07:58:03;;;;;;;27.60;3.45;;;9.50;99.90;;;;;;4878945;29;20045;-82
2023/12/10 08:00:29;;;;;;;29.38;4.05;;;9.50;99.90;;;;;;4879101;29;20041;-82
2023/12/10 08:02:55;;;;;;;26.30;4.18;;;9.50;99.90;;;;;;4879525;29;20037;-82
2023/12/10 08:05:21;;;;;;;26.95;3.35;;;9.50;99.90;;;;;;4847406;29;20037;-82
2023/12/10 08:07:46;;;;;;;27.52;3.05;;;9.60;99.90;;;;;;4832224;29;20067;-81
2023/12/10 08:10:13;;;;;;;30.50;3.47;;;9.50;99.90;;;;;;4862468;29;20033;-81
2023/12/10 08:12:38;;;;;;;23.65;4.07;;;9.60;99.90;;;;;;4879425;29;20061;-81
2023/12/10 08:15:05;;;;;;;28.20;3.38;;;9.50;99.90;;;;;;4862942;29;20489;-81
2023/12/10 08:17:30;;;;;;;33.42;3.78;;;9.50;99.90;;;;;;4862472;29;20037;-81
2023/12/10 08:19:56;;;;;;;24.65;3.38;;;9.50;99.90;;;;;;4862536;29;20543;-80
2023/12/10 08:22:22;;;;;;;28.48;3.28;;;9.50;99.90;;;;;;4862750;29;20469;-81
2023/12/10 08:24:47;;;;;;;28.80;3.28;;;9.50;99.90;;;;;;4862789;29;20037;-80
2023/12/10 08:27:13;;;;;;;29.02;3.85;;;9.50;99.90;;;;;;4862530;29;20045;-80
2023/12/10 08:29:39;;;;;;;30.23;3.58;;;9.50;99.90;;;;;;4862460;29;20459;-81
2023/12/10 08:32:05;;;;;;;27.08;3.88;;;9.50;99.90;;;;;;4879000;29;20033;-83
2023/12/10 08:34:30;;;;;;;22.77;3.05;;;9.50;99.90;;;;;;4862341;29;20037;-81
2023/12/10 08:36:56;;;;;;;31.30;4.03;;;9.50;99.90;;;;;;4879172;29;20056;-83
2023/12/10 08:39:22;;;;;;;22.70;3.17;;;9.50;99.90;;;;;;4866227;29;20140;-82
2023/12/10 08:41:47;;;;;;;31.27;3.88;;;9.50;99.90;;;;;;4882139;29;20476;-83
2023/12/10 08:44:13;;;;;;;29.73;2.80;;;9.50;99.90;;;;;;4882220;29;20037;-82
2023/12/10 08:46:39;;;;;;;30.35;3.08;;;9.50;99.90;;;;;;4881948;29;20144;-82
2023/12/10 08:49:04;;;;;;;22.17;2.85;;;9.60;99.90;;;;;;4882027;29;20037;-81
2023/12/10 08:51:30;;;;;;;26.77;3.40;;;9.60;99.90;;;;;;4850665;29;20069;-82
2023/12/10 08:53:56;;;;;;;30.33;3.60;;;9.60;99.90;;;;;;4881747;29;20044;-83
2023/12/10 08:56:21;;;;;;;25.02;3.10;;;9.60;99.90;;;;;;4849673;29;20125;-83
2023/12/10 08:58:47;;;;;;;29.52;3.38;;;9.60;99.90;;;;;;4865308;29;20085;-81
2023/12/10 09:01:13;;;;;;;21.02;3.22;;;9.60;99.90;;;;;;4865349;29;20120;-82
2023/12/10 09:03:42;;;;;;;21.67;2.63;;;9.60;99.90;;;;;;4865189;29;20108;-81
2023/12/10 09:06:08;;;;;;;31.75;3.42;;;9.60;99.90;;;;;;4866141;29;20025;-82
2023/12/10 09:08:34;;;;;;;27.73;3.70;;;9.60;99.90;;;;;;4881825;29;20037;-82
2023/12/10 09:11:03;;;;;;;18.83;3.70;;;9.70;99.90;;;;;;4865228;29;20045;-81
2023/12/10 09:13:33;;;;;;;23.05;3.40;;;9.70;99.90;;;;;;4850068;29;20029;-82
2023/12/10 09:15:59;;;;;;;28.88;3.53;;;9.70;99.90;;;;;;4851702;29;20033;-81
2023/12/10 09:18:26;;;;;;;23.33;3.00;;;9.70;99.90;;;;;;4882684;29;20474;-81
2023/12/10 09:20:52;;;;;;;21.80;3.22;;;9.70;99.90;;;;;;4866340;29;20537;-82
2023/12/10 09:23:17;;;;;;;25.52;3.00;;;9.70;99.90;;;;;;4881974;29;20029;-79
2023/12/10 09:25:43;;;;;;;24.20;3.30;;;9.70;99.90;;;;;;4865387;29;20481;-82
2023/12/10 09:28:09;;;;;;;25.08;2.90;;;9.70;99.90;;;;;;4880999;29;20037;-81
2023/12/10 09:30:34;;;;;;;18.52;2.70;;;9.70;99.90;;;;;;4881198;29;20490;-81
2023/12/10 09:33:00;;;;;;;21.58;3.20;;;9.70;99.90;;;;;;4865334;29;20088;-81
2023/12/10 09:35:26;;;;;;;25.05;3.28;;;9.70;99.90;;;;;;4864217;29;20088;-82
2023/12/10 09:37:51;;;;;;;24.00;3.30;;;9.70;99.90;;;;;;4849019;29;20064;-82
2023/12/10 09:40:17;;;;;;;19.85;2.40;;;9.80;99.90;;;;;;4880852;29;20045;-81
2023/12/10 09:42:43;;;;;;;30.05;3.65;;;9.80;99.90;;;;;;4864992;29;20049;-82
2023/12/10 09:45:09;;;;;;;22.63;3.15;;;9.80;99.90;;;;;;4849360;29;20056;-81
2023/12/10 09:47:35;;;;;;;21.75;3.20;;;9.80;99.90;;;;;;4865101;29;20037;-82
2023/12/10 09:50:02;;;;;;;24.65;4.47;;;9.80;99.90;;;;;;4880963;29;20077;-82
2023/12/10 09:52:28;;;;;;;26.00;3.85;;;9.80;99.90;;;;;;4864291;29;20451;-81
2023/12/10 09:54:54;;;;;;;23.50;3.00;;;9.80;99.90;;;;;;4864715;29;20124;-81
2023/12/10 09:57:20;;;;;;;23.15;3.28;;;9.80;99.90;;;;;;4881374;29;20043;-82
2023/12/10 09:59:47;;;;;;;25.70;3.15;;;9.90;99.90;;;;;;4880974;29;20061;-81
2023/12/10 10:02:15;;;;;;;23.92;3.45;;;9.80;99.90;;;;;;4848820;29;20049;-84
2023/12/10 10:04:41;;;;;;;25.73;2.92;;;9.90;99.90;;;;;;4880926;29;20033;-83
2023/12/10 10:07:07;;;;;;;29.77;3.20;;;9.90;99.90;;;;;;4880739;29;20041;-82
2023/12/10 10:09:34;;;;;;;21.35;3.00;;;9.90;99.90;;;;;;4880945;29;20033;-82
2023/12/10 10:12:00;;;;;;;20.67;3.20;;;9.90;99.90;;;;;;4864227;29;20036;-83
2023/12/10 10:14:26;;;;;;;22.15;2.90;;;9.90;99.90;;;;;;4848546;29;20036;-81
2023/12/10 10:16:51;;;;;;;21.05;2.58;;;9.90;99.90;;;;;;4848287;29;20151;-83
2023/12/10 10:19:17;;;;;;;24.52;2.70;;;9.90;99.90;;;;;;4848213;29;20115;-84
2023/12/10 10:21:43;;;;;;;21.92;3.15;;;9.90;99.90;;;;;;4848823;29;20037;-84
2023/12/10 10:24:09;;;;;;;20.50;2.15;;;10.00;99.90;;;;;;4880216;29;20031;-82
2023/12/10 10:26:36;;;;;;;22.55;2.63;;;9.90;99.90;;;;;;4863399;29;20029;-84
2023/12/10 10:29:04;;;;;;;23.10;2.80;;;9.90;99.90;;;;;;4880068;29;20071;-83
2023/12/10 10:31:32;;;;;;;19.40;2.58;;;9.90;99.90;;;;;;4863308;29;20037;-83
2023/12/10 10:34:03;;;;;;;25.83;2.70;;;9.90;99.90;;;;;;4880278;29;20033;-84
2023/12/10 10:36:30;;;;;;;31.60;2.95;;;10.00;99.90;;;;;;4879929;29;20053;-84
2023/12/10 10:38:57;;;;;;;25.77;3.20;;;10.00;99.90;;;;;;4879757;29;20470;-84
2023/12/10 10:41:23;;;;;;;26.20;4.10;;;10.00;99.90;;;;;;4862784;29;20045;-82
2023/12/10 10:43:49;;;;;;;26.25;3.80;;;10.00;99.90;;;;;;4879828;29;20033;-82
2023/12/10 10:46:19;;;;;;;25.55;4.38;;;10.00;99.90;;;;;;4879960;29;20434;-82
2023/12/10 10:48:45;;;;;;;25.85;3.17;;;10.00;99.90;;;;;;4863916;29;20043;-83
2023/12/10 10:51:11;;;;;;;31.65;3.75;;;10.00;99.90;;;;;;4880448;29;20449;-79
2023/12/10 10:53:38;;;;;;;27.45;3.38;;;10.00;99.90;;;;;;4879866;29;20080;-83
2023/12/10 10:56:05;;;;;;;19.15;3.10;;;10.00;99.90;;;;;;4863593;29;20041;-83
2023/12/10 10:58:31;;;;;;;24.65;2.88;;;10.00;99.90;;;;;;4847277;29;20044;-84
2023/12/10 11:00:57;;;;;;;30.20;3.38;;;10.10;99.90;;;;;;4862948;29;20041;-83
2023/12/10 11:03:26;;;;;;;21.95;2.78;;;10.10;99.90;;;;;;4848014;29;20480;-83
2023/12/10 11:05:57;;;;;;;22.85;3.47;;;10.10;99.90;;;;;;4849036;29;20033;-84
2023/12/10 11:08:25;;;;;;;25.08;3.58;;;10.20;99.90;;;;;;4863616;29;20394;-83
2023/12/10 11:11:00;;;;;;;21.80;2.70;;;10.20;99.90;;;;;;4862882;29;20051;-78
2023/12/10 11:13:45;;;;;;;27.48;3.58;;;10.20;99.90;;;;;;4880412;29;20063;-78
2023/12/10 11:16:11;;;;;;;28.27;3.28;;;10.20;99.90;;;;;;4862906;29;20029;-77
2023/12/10 11:18:52;;;;;;;25.42;3.40;;;10.20;99.90;;;;;;4879509;29;20137;-77
2023/12/10 11:21:18;;;;;;;27.85;4.03;;;10.20;99.90;;;;;;4863294;29;20397;-77
2023/12/10 11:23:44;;;;;;;26.90;3.25;;;10.20;99.90;;;;;;4851567;29;20029;-81
2023/12/10 11:26:10;;;;;;;28.02;3.20;;;10.20;99.90;;;;;;4872850;29;20036;-81
2023/12/10 11:28:36;;;;;;;23.90;3.25;;;10.30;99.90;;;;;;4889069;29;20049;-81
2023/12/10 11:31:02;;;;;;;23.27;2.95;;;10.30;99.90;;;;;;4885619;29;20029;-81
2023/12/10 11:33:28;;;;;;;39.55;4.47;;;10.30;99.90;;;;;;4887853;29;20036;-81
2023/12/10 11:35:57;;;;;;;25.20;3.70;;;10.30;99.90;;;;;;4875736;29;20049;-81
2023/12/10 11:38:26;;;;;;;22.63;3.15;;;10.30;99.90;;;;;;4891784;29;20064;-81
2023/12/10 11:40:52;;;;;;;29.77;3.25;;;10.30;99.90;;;;;;4890912;29;20398;-80
2023/12/10 11:43:19;;;;;;;25.80;3.38;;;10.30;99.90;;;;;;4892360;29;20096;-80
2023/12/10 11:45:45;;;;;;;27.73;4.10;;;10.40;99.90;;;;;;4872204;29;20033;-80
2023/12/10 11:48:10;;;;;;;32.80;3.63;;;10.40;99.90;;;;;;4890934;29;20037;-81
2023/12/10 11:50:37;;;;;;;25.58;3.28;;;10.40;99.90;;;;;;4861234;29;20081;-81
2023/12/10 11:53:03;;;;;;;19.27;2.80;;;10.50;99.90;;;;;;4867811;29;20095;-82
2023/12/10 11:55:30;;;;;;;27.50;3.28;;;10.50;99.90;;;;;;4889462;29;20045;-81
2023/12/10 11:57:57;;;;;;;26.25;3.63;;;10.50;99.90;;;;;;4865356;29;20093;-82
2023/12/10 12:00:24;;;;;;;23.13;3.53;;;10.60;99.90;;;;;;4881708;29;20176;-82
2023/12/10 12:02:51;;;;;;;24.40;3.10;;;10.60;99.90;;;;;;4870155;29;20053;-82
2023/12/10 12:05:17;;;;;;;29.77;3.70;;;10.60;99.90;;;;;;4861401;29;20029;-80
2023/12/10 12:07:44;;;;;;;26.02;3.22;;;10.60;99.90;;;;;;4878061;29;20340;-80
2023/12/10 12:10:14;;;;;;;18.25;3.03;;;10.60;99.90;;;;;;4851166;29;20375;-82
2023/12/10 12:12:42;;;;;;;20.83;2.85;;;10.60;99.90;;;;;;4865215;29;20033;-82
2023/12/10 12:15:14;;;;;;;26.45;3.28;;;10.70;99.90;;;;;;4883855;29;20036;-82
2023/12/10 12:17:41;;;;;;;19.25;2.65;;;10.70;99.90;;;;;;4883986;29;20044;-82
2023/12/10 12:20:18;;;;;;;28.10;3.05;;;10.70;99.90;;;;;;4883521;29;20044;-81
2023/12/10 12:22:44;;;;;;;20.67;2.55;;;10.70;99.90;;;;;;4883642;29;20033;-80
2023/12/10 12:25:10;;;;;;;20.20;2.60;;;10.70;99.90;;;;;;4883652;29;20037;-81
2023/12/10 12:27:36;;;;;;;23.42;3.25;;;10.70;99.90;;;;;;4883180;29;20037;-79
2023/12/10 12:30:02;;;;;;;18.67;2.88;;;10.80;99.90;;;;;;4883007;29;20482;-81
2023/12/10 12:32:28;;;;;;;24.10;2.83;;;10.80;99.90;;;;;;4883607;29;20033;-82
2023/12/10 12:34:53;;;;;;;24.88;2.60;;;10.80;99.90;;;;;;4883160;29;20450;-83
2023/12/10 12:37:19;;;;;;;23.17;2.65;;;10.80;99.90;;;;;;4868367;29;20558;-83
2023/12/10 12:39:45;;;;;;;24.13;3.17;;;10.70;99.90;;;;;;4868617;29;20045;-83